createdAt,value
2019-01-22T00:00:40.006Z,0.00
2019-01-22T00:01:39.986Z,0.00
2019-01-22T00:02:40.002Z,0.00
2019-01-22T00:03:40.023Z,0.00
2019-01-22T00:04:40.042Z,0.00
2019-01-22T00:05:40.043Z,0.00
2019-01-22T00:06:40.033Z,0.00
2019-01-22T00:07:40.046Z,0.00
2019-01-22T00:08:40.123Z,0.00
2019-01-22T00:09:40.068Z,0.00
2019-01-22T00:10:40.077Z,0.00
2019-01-22T00:11:40.183Z,0.00
2019-01-22T00:12:40.114Z,0.00
2019-01-22T00:13:40.094Z,0.00
2019-01-22T00:14:40.119Z,0.00
2019-01-22T00:15:40.165Z,0.00
2019-01-22T00:16:40.109Z,0.00
2019-01-22T00:17:40.131Z,0.00
2019-01-22T00:18:40.127Z,0.00
2019-01-22T00:19:40.130Z,0.00
2019-01-22T00:20:40.151Z,0.00
2019-01-22T00:21:40.153Z,0.00
2019-01-22T00:22:40.171Z,0.00
2019-01-22T00:23:40.211Z,0.00
2019-01-22T00:24:40.230Z,0.00
2019-01-22T00:25:40.189Z,0.00
2019-01-22T00:26:40.187Z,0.00
2019-01-22T00:27:40.255Z,0.00
2019-01-22T00:28:40.207Z,0.00
2019-01-22T00:29:40.257Z,0.00
2019-01-22T00:30:40.226Z,0.00
2019-01-22T00:31:40.239Z,0.00
2019-01-22T00:32:40.252Z,0.00
2019-01-22T00:33:40.309Z,0.00
2019-01-22T00:34:40.256Z,0.00
2019-01-22T00:35:40.281Z,0.00
2019-01-22T00:36:40.290Z,0.00
2019-01-22T00:37:40.330Z,0.00
2019-01-22T00:38:40.287Z,0.00
2019-01-22T00:39:40.325Z,0.00
2019-01-22T00:40:40.313Z,0.00
2019-01-22T00:41:40.333Z,0.00
2019-01-22T00:42:40.406Z,0.00
2019-01-22T00:43:40.337Z,0.00
2019-01-22T00:44:40.353Z,0.00
2019-01-22T00:45:40.359Z,0.00
2019-01-22T00:46:40.372Z,0.00
2019-01-22T00:47:40.428Z,0.00
2019-01-22T00:48:40.419Z,0.00
2019-01-22T00:49:40.391Z,0.00
2019-01-22T00:50:40.404Z,0.00
2019-01-22T00:51:40.417Z,0.00
2019-01-22T00:52:40.409Z,0.00
2019-01-22T00:53:40.449Z,0.00
2019-01-22T00:54:40.427Z,0.00
2019-01-22T00:55:40.437Z,0.00
2019-01-22T00:56:40.442Z,0.00
2019-01-22T00:57:40.451Z,0.00
2019-01-22T00:58:40.504Z,0.00
2019-01-22T00:59:40.476Z,0.00
2019-01-22T01:00:40.526Z,0.00
2019-01-22T01:01:40.482Z,0.00
2019-01-22T01:02:40.515Z,0.00
2019-01-22T01:03:40.505Z,0.00
2019-01-22T01:04:40.518Z,0.00
2019-01-22T01:05:40.530Z,0.00
2019-01-22T01:06:40.546Z,0.00
2019-01-22T01:07:40.571Z,0.00
2019-01-22T01:08:40.542Z,0.00
2019-01-22T01:09:40.550Z,0.00
2019-01-22T01:10:40.579Z,0.00
2019-01-22T01:11:40.573Z,0.00
2019-01-22T01:12:40.587Z,0.00
2019-01-22T01:13:40.591Z,0.00
2019-01-22T01:14:40.592Z,0.00
2019-01-22T01:15:40.611Z,0.00
2019-01-22T01:16:40.626Z,0.00
2019-01-22T01:17:40.689Z,0.00
2019-01-22T01:18:40.637Z,0.00
2019-01-22T01:19:40.640Z,0.00
2019-01-22T01:20:40.660Z,0.00
2019-01-22T01:21:40.697Z,0.00
2019-01-22T01:22:40.665Z,0.00
2019-01-22T01:23:40.676Z,0.00
2019-01-22T01:24:40.695Z,0.00
2019-01-22T01:25:40.691Z,0.00
2019-01-22T01:26:40.692Z,0.00
2019-01-22T01:27:40.699Z,0.00
2019-01-22T01:28:40.757Z,0.00
2019-01-22T01:29:40.730Z,0.00
2019-01-22T01:30:40.767Z,0.00
2019-01-22T01:31:40.732Z,0.00
2019-01-22T01:32:40.750Z,0.00
2019-01-22T01:33:40.758Z,0.00
2019-01-22T01:34:40.818Z,0.00
2019-01-22T01:35:40.804Z,0.00
2019-01-22T01:36:40.794Z,0.00
2019-01-22T01:37:40.801Z,0.00
2019-01-22T01:38:40.826Z,0.00
2019-01-22T01:39:40.825Z,0.00
2019-01-22T01:40:40.820Z,0.00
2019-01-22T01:41:40.822Z,0.00
2019-01-22T01:42:40.849Z,0.00
2019-01-22T01:43:40.853Z,0.00
2019-01-22T01:44:40.864Z,0.00
2019-01-22T01:45:40.883Z,0.00
2019-01-22T01:46:40.877Z,0.00
2019-01-22T01:47:40.889Z,0.00
2019-01-22T01:48:40.878Z,0.00
2019-01-22T01:49:40.905Z,0.00
2019-01-22T01:50:40.904Z,0.00
2019-01-22T01:51:40.937Z,0.00
2019-01-22T01:52:40.931Z,0.00
2019-01-22T01:53:40.950Z,0.00
2019-01-22T01:54:40.937Z,0.00
2019-01-22T01:55:40.939Z,0.00
2019-01-22T01:56:40.981Z,0.00
2019-01-22T01:57:40.959Z,0.00
2019-01-22T01:58:40.967Z,0.00
2019-01-22T01:59:40.973Z,0.00
2019-01-22T02:00:41.000Z,0.00
2019-01-22T02:01:40.995Z,0.00
2019-01-22T02:02:41.000Z,0.00
2019-01-22T02:03:41.021Z,0.00
2019-01-22T02:04:41.046Z,0.00
2019-01-22T02:05:41.052Z,0.00
2019-01-22T02:06:41.031Z,0.00
2019-01-22T02:07:41.056Z,0.00
2019-01-22T02:08:41.062Z,0.00
2019-01-22T02:09:41.063Z,0.00
2019-01-22T02:10:41.111Z,0.00
2019-01-22T02:11:41.082Z,0.00
2019-01-22T02:12:41.114Z,0.00
2019-01-22T02:13:41.111Z,0.00
2019-01-22T02:14:41.091Z,0.00
2019-01-22T02:15:41.106Z,0.00
2019-01-22T02:16:41.156Z,0.00
2019-01-22T02:17:41.140Z,0.00
2019-01-22T02:18:41.131Z,0.00
2019-01-22T02:19:41.160Z,0.00
2019-01-22T02:20:41.214Z,0.00
2019-01-22T02:21:41.178Z,0.00
2019-01-22T02:22:41.208Z,0.00
2019-01-22T02:23:41.175Z,0.00
2019-01-22T02:24:41.188Z,0.00
2019-01-22T02:25:41.191Z,0.00
2019-01-22T02:26:41.220Z,0.00
2019-01-22T02:27:41.203Z,0.00
2019-01-22T02:28:41.236Z,0.00
2019-01-22T02:29:41.227Z,0.00
2019-01-22T02:30:41.235Z,0.00
2019-01-22T02:31:41.242Z,0.00
2019-01-22T02:32:41.266Z,0.00
2019-01-22T02:33:41.315Z,0.00
2019-01-22T02:34:41.279Z,0.00
2019-01-22T02:35:41.270Z,0.00
2019-01-22T02:36:41.320Z,0.00
2019-01-22T02:37:41.288Z,0.00
2019-01-22T02:38:41.353Z,0.00
2019-01-22T02:39:41.312Z,0.00
2019-01-22T02:40:41.322Z,0.00
2019-01-22T02:41:41.318Z,0.00
2019-01-22T02:42:41.344Z,0.00
2019-01-22T02:43:41.353Z,0.00
2019-01-22T02:44:41.356Z,0.00
2019-01-22T02:45:41.353Z,0.00
2019-01-22T02:46:41.401Z,0.00
2019-01-22T02:47:41.384Z,0.00
2019-01-22T02:48:41.385Z,0.00
2019-01-22T02:49:41.394Z,0.00
2019-01-22T02:50:41.407Z,0.00
2019-01-22T02:51:41.406Z,0.00
2019-01-22T02:52:41.414Z,0.00
2019-01-22T02:53:41.424Z,0.00
2019-01-22T02:54:41.432Z,0.00
2019-01-22T02:55:41.523Z,0.00
2019-01-22T02:56:41.444Z,0.00
2019-01-22T02:57:41.458Z,0.00
2019-01-22T02:58:41.462Z,0.00
2019-01-22T02:59:41.488Z,0.00
2019-01-22T03:00:41.511Z,0.00
2019-01-22T03:01:41.485Z,0.00
2019-01-22T03:02:41.526Z,0.00
2019-01-22T03:03:41.526Z,0.00
2019-01-22T03:04:41.509Z,0.00
2019-01-22T03:05:41.519Z,0.00
2019-01-22T03:06:41.531Z,0.00
2019-01-22T03:07:41.535Z,0.00
2019-01-22T03:08:41.541Z,0.00
2019-01-22T03:09:41.610Z,0.00
2019-01-22T03:10:41.556Z,0.00
2019-01-22T03:11:41.576Z,0.00
2019-01-22T03:12:41.575Z,0.00
2019-01-22T03:13:41.580Z,0.00
2019-01-22T03:14:41.603Z,0.00
2019-01-22T03:15:41.597Z,0.00
2019-01-22T03:16:41.621Z,0.00
2019-01-22T03:17:41.635Z,0.00
2019-01-22T03:18:41.666Z,0.00
2019-01-22T03:19:41.657Z,0.00
2019-01-22T03:20:41.639Z,0.00
2019-01-22T03:21:41.681Z,0.00
2019-01-22T03:22:41.681Z,0.00
2019-01-22T03:23:46.344Z,0.00
2019-01-22T03:24:41.690Z,0.00
2019-01-22T03:25:41.687Z,0.00
2019-01-22T03:26:41.762Z,0.00
2019-01-22T03:27:41.701Z,0.00
2019-01-22T03:28:41.705Z,0.00
2019-01-22T03:29:41.774Z,0.00
2019-01-22T03:30:41.735Z,0.00
2019-01-22T03:31:41.787Z,0.00
2019-01-22T03:32:41.745Z,0.00
2019-01-22T03:33:41.770Z,0.00
2019-01-22T03:34:41.762Z,0.00
2019-01-22T03:35:41.851Z,0.00
2019-01-22T03:36:41.842Z,0.00
2019-01-22T03:37:41.792Z,0.00
2019-01-22T03:38:41.876Z,0.00
2019-01-22T03:39:41.801Z,0.00
2019-01-22T03:40:41.806Z,0.00
2019-01-22T03:41:41.812Z,0.00
2019-01-22T03:42:41.833Z,0.00
2019-01-22T03:43:41.831Z,0.00
2019-01-22T03:44:41.867Z,0.00
2019-01-22T03:45:41.893Z,0.00
2019-01-22T03:46:41.890Z,0.00
2019-01-22T03:47:41.867Z,0.00
2019-01-22T03:48:41.879Z,0.00
2019-01-22T03:49:41.915Z,0.00
2019-01-22T03:50:41.908Z,0.00
2019-01-22T03:51:41.908Z,0.00
2019-01-22T03:52:41.905Z,0.00
2019-01-22T03:53:41.933Z,0.00
2019-01-22T03:54:41.945Z,0.00
2019-01-22T03:55:41.937Z,0.00
2019-01-22T03:56:41.954Z,0.00
2019-01-22T03:57:41.944Z,0.00
2019-01-22T03:58:42.019Z,0.00
2019-01-22T03:59:41.968Z,0.00
2019-01-22T04:00:41.975Z,0.00
2019-01-22T04:01:41.980Z,0.00
2019-01-22T04:02:41.985Z,0.00
2019-01-22T04:03:41.991Z,0.00
2019-01-22T04:04:41.996Z,0.00
2019-01-22T04:05:42.007Z,0.00
2019-01-22T04:06:42.031Z,0.00
2019-01-22T04:07:42.018Z,0.00
2019-01-22T04:08:42.030Z,0.00
2019-01-22T04:09:42.047Z,0.00
2019-01-22T04:10:42.055Z,0.00
2019-01-22T04:11:42.065Z,0.00
2019-01-22T04:12:42.091Z,0.00
2019-01-22T04:13:42.107Z,0.00
2019-01-22T04:14:42.140Z,0.00
2019-01-22T04:15:42.102Z,0.00
2019-01-22T04:16:42.101Z,0.00
2019-01-22T04:17:42.130Z,0.00
2019-01-22T04:18:42.160Z,0.00
2019-01-22T04:19:42.139Z,0.00
2019-01-22T04:20:42.153Z,0.00
2019-01-22T04:21:42.229Z,0.00
2019-01-22T04:22:42.149Z,0.00
2019-01-22T04:23:42.157Z,0.00
2019-01-22T04:24:42.177Z,0.00
2019-01-22T04:25:42.177Z,0.00
2019-01-22T04:26:42.179Z,0.00
2019-01-22T04:27:42.200Z,0.00
2019-01-22T04:28:42.207Z,0.00
2019-01-22T04:29:42.206Z,0.00
2019-01-22T04:30:42.212Z,0.00
2019-01-22T04:31:42.226Z,0.00
2019-01-22T04:32:42.235Z,0.00
2019-01-22T04:33:42.261Z,0.00
2019-01-22T04:34:42.256Z,0.00
2019-01-22T04:35:42.278Z,0.00
2019-01-22T04:36:42.309Z,0.00
2019-01-22T04:37:42.283Z,0.00
2019-01-22T04:38:42.286Z,0.00
2019-01-22T04:39:42.345Z,0.00
2019-01-22T04:40:42.315Z,0.00
2019-01-22T04:41:42.307Z,0.00
2019-01-22T04:42:42.315Z,0.00
2019-01-22T04:43:42.315Z,0.00
2019-01-22T04:44:42.334Z,0.00
2019-01-22T04:45:42.332Z,0.00
2019-01-22T04:46:42.352Z,0.00
2019-01-22T04:47:42.376Z,0.00
2019-01-22T04:48:42.367Z,0.00
2019-01-22T04:49:42.368Z,0.00
2019-01-22T04:50:42.379Z,0.00
2019-01-22T04:51:42.389Z,0.00
2019-01-22T04:52:42.402Z,0.00
2019-01-22T04:53:42.400Z,0.00
2019-01-22T04:54:42.408Z,0.00
2019-01-22T04:55:42.445Z,0.00
2019-01-22T04:56:42.420Z,0.00
2019-01-22T04:57:42.451Z,0.00
2019-01-22T04:58:42.444Z,0.00
2019-01-22T04:59:42.459Z,0.00
2019-01-22T05:00:42.473Z,0.00
2019-01-22T05:01:42.505Z,0.00
2019-01-22T05:02:42.479Z,0.00
2019-01-22T05:03:42.485Z,0.00
2019-01-22T05:04:42.501Z,0.00
2019-01-22T05:05:42.498Z,0.00
2019-01-22T05:06:42.505Z,0.00
2019-01-22T05:07:42.523Z,0.00
2019-01-22T05:08:42.541Z,0.00
2019-01-22T05:09:42.561Z,0.00
2019-01-22T05:10:42.569Z,0.00
2019-01-22T05:11:42.588Z,0.00
2019-01-22T05:12:42.570Z,0.00
2019-01-22T05:13:42.589Z,0.00
2019-01-22T05:14:42.589Z,0.00
2019-01-22T05:15:42.607Z,0.00
2019-01-22T05:16:42.624Z,0.00
2019-01-22T05:17:42.606Z,0.00
2019-01-22T05:18:42.601Z,0.00
2019-01-22T05:19:42.614Z,0.00
2019-01-22T05:20:42.624Z,0.00
2019-01-22T05:21:42.648Z,0.00
2019-01-22T05:22:42.727Z,0.00
2019-01-22T05:23:42.694Z,0.00
2019-01-22T05:24:42.667Z,0.00
2019-01-22T05:25:42.680Z,0.00
2019-01-22T05:26:42.671Z,0.00
2019-01-22T05:27:42.695Z,0.00
2019-01-22T05:28:42.691Z,0.00
2019-01-22T05:29:42.737Z,0.00
2019-01-22T05:30:42.708Z,0.00
2019-01-22T05:31:42.735Z,0.00
2019-01-22T05:32:42.723Z,0.00
2019-01-22T05:33:42.746Z,0.00
2019-01-22T05:34:42.769Z,0.00
2019-01-22T05:35:42.740Z,0.00
2019-01-22T05:36:42.788Z,0.00
2019-01-22T05:37:42.816Z,0.00
2019-01-22T05:38:42.789Z,0.00
2019-01-22T05:39:42.827Z,0.00
2019-01-22T05:40:42.788Z,0.00
2019-01-22T05:41:42.803Z,0.00
2019-01-22T05:42:42.796Z,0.00
2019-01-22T05:43:42.822Z,0.00
2019-01-22T05:44:42.816Z,0.00
2019-01-22T05:45:42.833Z,0.00
2019-01-22T05:46:42.875Z,0.00
2019-01-22T05:47:42.879Z,0.00
2019-01-22T05:48:42.848Z,0.00
2019-01-22T05:49:42.863Z,0.00
2019-01-22T05:50:42.883Z,0.00
2019-01-22T05:51:42.868Z,4.00
2019-01-22T05:52:42.882Z,0.00
2019-01-22T05:53:42.885Z,0.00
2019-01-22T05:54:42.956Z,0.00
2019-01-22T05:55:42.912Z,0.00
2019-01-22T05:56:42.961Z,0.00
2019-01-22T05:57:42.929Z,0.00
2019-01-22T05:58:42.938Z,0.00
2019-01-22T05:59:42.942Z,0.00
2019-01-22T06:00:42.949Z,0.00
2019-01-22T06:01:42.952Z,0.00
2019-01-22T06:02:42.998Z,0.00
2019-01-22T06:03:42.971Z,0.00
2019-01-22T06:04:42.989Z,0.00
2019-01-22T06:05:42.989Z,0.00
2019-01-22T06:06:42.994Z,0.00
2019-01-22T06:07:43.026Z,0.00
2019-01-22T06:08:43.045Z,0.00
2019-01-22T06:09:43.074Z,0.00
2019-01-22T06:10:43.108Z,0.00
2019-01-22T06:11:43.034Z,0.00
2019-01-22T06:12:43.049Z,0.00
2019-01-22T06:13:43.075Z,0.00
2019-01-22T06:14:43.059Z,0.00
2019-01-22T06:15:43.072Z,0.00
2019-01-22T06:16:43.081Z,0.00
2019-01-22T06:17:43.179Z,0.00
2019-01-22T06:18:43.095Z,0.00
2019-01-22T06:19:43.113Z,0.00
2019-01-22T06:20:43.120Z,0.00
2019-01-22T06:21:43.151Z,0.00
2019-01-22T06:22:43.144Z,0.00
2019-01-22T06:23:43.167Z,0.00
2019-01-22T06:24:43.186Z,0.00
2019-01-22T06:25:49.403Z,0.00
2019-01-22T06:26:43.200Z,0.00
2019-01-22T06:27:43.171Z,0.00
2019-01-22T06:28:43.207Z,0.00
2019-01-22T06:29:43.192Z,0.00
2019-01-22T06:30:43.198Z,4.00
2019-01-22T06:31:43.219Z,4.00
2019-01-22T06:32:43.223Z,4.00
2019-01-22T06:33:43.277Z,4.00
2019-01-22T06:34:43.231Z,0.00
2019-01-22T06:35:43.290Z,0.00
2019-01-22T06:36:43.275Z,4.00
2019-01-22T06:37:43.261Z,4.00
2019-01-22T06:38:43.263Z,4.00
2019-01-22T06:39:43.272Z,4.00
2019-01-22T06:40:43.291Z,4.00
2019-01-22T06:41:43.318Z,8.00
2019-01-22T06:42:43.349Z,4.00
2019-01-22T06:43:43.342Z,4.00
2019-01-22T06:44:43.320Z,8.00
2019-01-22T06:45:43.352Z,8.00
2019-01-22T06:46:43.374Z,8.00
2019-01-22T06:47:43.344Z,12.00
2019-01-22T06:48:43.364Z,12.00
2019-01-22T06:49:43.367Z,16.00
2019-01-22T06:50:43.418Z,16.00
2019-01-22T06:51:43.372Z,20.00
2019-01-22T06:52:43.413Z,20.00
2019-01-22T06:53:43.409Z,28.00
2019-01-22T06:54:43.407Z,32.00
2019-01-22T06:55:43.415Z,36.00
2019-01-22T06:56:43.427Z,40.00
2019-01-22T06:57:43.442Z,48.00
2019-01-22T06:58:43.449Z,56.00
2019-01-22T06:59:43.447Z,60.00
2019-01-22T07:00:43.454Z,72.00
2019-01-22T07:01:43.460Z,80.00
2019-01-22T07:02:43.478Z,92.00
2019-01-22T07:03:43.482Z,104.00
2019-01-22T07:04:43.500Z,116.00
2019-01-22T07:05:43.501Z,136.00
2019-01-22T07:06:43.509Z,152.00
2019-01-22T07:07:43.524Z,168.00
2019-01-22T07:08:43.534Z,184.00
2019-01-22T07:09:43.539Z,208.00
2019-01-22T07:10:43.550Z,228.00
2019-01-22T07:11:43.553Z,252.00
2019-01-22T07:12:43.569Z,276.00
2019-01-22T07:13:43.578Z,300.00
2019-01-22T07:14:43.648Z,324.00
2019-01-22T07:15:43.610Z,356.00
2019-01-22T07:16:43.594Z,384.00
2019-01-22T07:17:43.625Z,420.00
2019-01-22T07:18:43.677Z,448.00
2019-01-22T07:19:43.637Z,484.00
2019-01-22T07:20:43.630Z,520.00
2019-01-22T07:21:43.658Z,560.00
2019-01-22T07:22:43.664Z,604.00
2019-01-22T07:23:43.678Z,648.00
2019-01-22T07:24:46.801Z,692.00
2019-01-22T07:25:43.673Z,740.00
2019-01-22T07:26:44.084Z,788.00
2019-01-22T07:27:43.688Z,840.00
2019-01-22T07:28:43.727Z,892.00
2019-01-22T07:29:43.721Z,948.00
2019-01-22T07:30:43.721Z,1004.00
2019-01-22T07:31:43.747Z,1064.00
2019-01-22T07:32:43.810Z,1116.00
2019-01-22T07:33:43.803Z,1176.00
2019-01-22T07:34:43.760Z,1236.00
2019-01-22T07:35:43.770Z,1300.00
2019-01-22T07:36:43.807Z,1360.00
2019-01-22T07:37:43.830Z,1424.00
2019-01-22T07:38:43.795Z,1488.00
2019-01-22T07:39:43.800Z,1556.00
2019-01-22T07:40:43.826Z,1616.00
2019-01-22T07:41:43.820Z,1680.00
2019-01-22T07:42:43.830Z,1744.00
2019-01-22T07:43:43.860Z,1812.00
2019-01-22T07:44:43.858Z,1876.00
2019-01-22T07:45:43.860Z,1944.00
2019-01-22T07:46:43.869Z,2004.00
2019-01-22T07:47:43.885Z,2080.00
2019-01-22T07:48:43.903Z,2144.00
2019-01-22T07:49:43.905Z,2212.00
2019-01-22T07:50:43.907Z,2284.00
2019-01-22T07:51:43.935Z,2352.00
2019-01-22T07:52:43.950Z,2428.00
2019-01-22T07:53:43.947Z,2512.00
2019-01-22T07:54:43.970Z,2580.00
2019-01-22T07:55:43.958Z,2632.00
2019-01-22T07:56:44.000Z,2708.00
2019-01-22T07:57:44.009Z,2804.00
2019-01-22T07:58:43.983Z,2912.00
2019-01-22T07:59:44.013Z,2980.00
2019-01-22T08:00:44.008Z,3060.00
2019-01-22T08:01:44.009Z,3112.00
2019-01-22T08:02:44.014Z,3184.00
2019-01-22T08:03:44.055Z,3264.00
2019-01-22T08:04:44.041Z,3328.00
2019-01-22T08:05:44.043Z,3348.00
2019-01-22T08:06:44.100Z,3412.00
2019-01-22T08:07:44.093Z,3436.00
2019-01-22T08:08:44.074Z,3500.00
2019-01-22T08:09:44.112Z,3572.00
2019-01-22T08:10:44.116Z,3652.00
2019-01-22T08:11:44.121Z,3684.00
2019-01-22T08:12:44.136Z,3704.00
2019-01-22T08:13:44.157Z,3704.00
2019-01-22T08:14:44.135Z,3724.00
2019-01-22T08:15:44.181Z,3724.00
2019-01-22T08:16:44.165Z,3732.00
2019-01-22T08:17:44.162Z,3792.00
2019-01-22T08:18:44.189Z,3936.00
2019-01-22T08:19:44.192Z,4108.00
2019-01-22T08:20:44.205Z,4228.00
2019-01-22T08:21:44.211Z,4264.00
2019-01-22T08:22:44.217Z,4280.00
2019-01-22T08:23:44.228Z,4296.00
2019-01-22T08:24:44.244Z,4328.00
2019-01-22T08:25:44.297Z,4416.00
2019-01-22T08:26:44.264Z,4500.00
2019-01-22T08:27:44.282Z,4548.00
2019-01-22T08:28:44.314Z,4620.00
2019-01-22T08:29:44.304Z,4700.00
2019-01-22T08:30:44.308Z,4692.00
2019-01-22T08:31:44.328Z,4712.00
2019-01-22T08:32:44.323Z,4760.00
2019-01-22T08:33:44.378Z,4812.00
2019-01-22T08:34:44.373Z,4844.00
2019-01-22T08:35:44.390Z,4872.00
2019-01-22T08:36:44.376Z,4896.00
2019-01-22T08:37:44.425Z,4920.00
2019-01-22T08:38:44.383Z,4944.00
2019-01-22T08:39:44.399Z,4988.00
2019-01-22T08:40:44.408Z,5048.00
2019-01-22T08:41:44.430Z,5068.00
2019-01-22T08:42:44.451Z,5080.00
2019-01-22T08:43:44.482Z,5096.00
2019-01-22T08:44:44.458Z,5060.00
2019-01-22T08:45:44.469Z,4996.00
2019-01-22T08:46:44.485Z,4968.00
2019-01-22T08:47:44.490Z,4944.00
2019-01-22T08:48:44.499Z,4912.00
2019-01-22T08:49:44.514Z,4888.00
2019-01-22T08:50:44.533Z,4904.00
2019-01-22T08:51:44.530Z,4900.00
2019-01-22T08:52:44.540Z,4912.00
2019-01-22T08:53:44.555Z,4936.00
2019-01-22T08:54:44.565Z,4944.00
2019-01-22T08:55:44.585Z,4944.00
2019-01-22T08:56:44.587Z,4920.00
2019-01-22T08:57:44.636Z,4904.00
2019-01-22T08:58:44.612Z,4868.00
2019-01-22T08:59:44.631Z,4856.00
2019-01-22T09:00:44.639Z,4864.00
2019-01-22T09:01:44.643Z,4864.00
2019-01-22T09:02:44.664Z,4936.00
2019-01-22T09:03:44.712Z,4976.00
2019-01-22T09:04:44.684Z,5044.00
2019-01-22T09:05:44.689Z,5084.00
2019-01-22T09:06:44.744Z,5136.00
2019-01-22T09:07:44.748Z,5236.00
2019-01-22T09:08:44.728Z,5316.00
2019-01-22T09:09:44.738Z,5368.00
2019-01-22T09:10:44.745Z,5396.00
2019-01-22T09:11:44.769Z,5444.00
2019-01-22T09:12:44.768Z,5496.00
2019-01-22T09:13:44.773Z,5524.00
2019-01-22T09:14:44.790Z,5528.00
2019-01-22T09:15:44.801Z,5592.00
2019-01-22T09:16:44.809Z,5644.00
2019-01-22T09:17:44.835Z,5656.00
2019-01-22T09:18:44.850Z,5660.00
2019-01-22T09:19:44.899Z,5708.00
2019-01-22T09:20:44.856Z,5816.00
2019-01-22T09:21:44.876Z,5876.00
2019-01-22T09:22:44.911Z,5916.00
2019-01-22T09:23:44.894Z,5924.00
2019-01-22T09:24:44.895Z,5960.00
2019-01-22T09:25:44.898Z,6000.00
2019-01-22T09:26:44.921Z,6048.00
2019-01-22T09:27:44.933Z,6112.00
2019-01-22T09:28:44.985Z,6120.00
2019-01-22T09:29:44.968Z,6136.00
2019-01-22T09:30:44.973Z,6180.00
2019-01-22T09:31:44.977Z,6232.00
2019-01-22T09:32:44.986Z,6280.00
2019-01-22T09:33:45.002Z,6276.00
2019-01-22T09:34:45.003Z,6304.00
2019-01-22T09:35:45.031Z,6320.00
2019-01-22T09:36:45.033Z,6316.00
2019-01-22T09:37:45.042Z,6276.00
2019-01-22T09:38:45.049Z,6244.00
2019-01-22T09:39:45.116Z,6200.00
2019-01-22T09:40:45.068Z,6176.00
2019-01-22T09:41:45.098Z,6148.00
2019-01-22T09:42:45.133Z,6108.00
2019-01-22T09:43:45.118Z,6000.00
2019-01-22T09:44:45.121Z,5964.00
2019-01-22T09:45:45.145Z,6092.00
2019-01-22T09:46:45.181Z,6160.00
2019-01-22T09:47:45.189Z,6176.00
2019-01-22T09:48:45.191Z,6220.00
2019-01-22T09:49:45.205Z,6248.00
2019-01-22T09:50:45.220Z,6236.00
2019-01-22T09:51:45.199Z,6240.00
2019-01-22T09:52:45.208Z,6292.00
2019-01-22T09:53:45.252Z,6328.00
2019-01-22T09:54:45.230Z,6336.00
2019-01-22T09:55:45.290Z,6380.00
2019-01-22T09:56:45.247Z,6372.00
2019-01-22T09:57:45.262Z,6376.00
2019-01-22T09:58:45.295Z,6424.00
2019-01-22T09:59:45.282Z,6420.00
2019-01-22T10:00:45.304Z,6432.00
2019-01-22T10:01:45.326Z,6432.00
2019-01-22T10:02:45.337Z,6392.00
2019-01-22T10:03:45.356Z,6424.00
2019-01-22T10:04:45.386Z,6484.00
2019-01-22T10:05:45.370Z,6516.00
2019-01-22T10:06:45.381Z,6576.00
2019-01-22T10:07:45.397Z,6640.00
2019-01-22T10:08:45.399Z,6628.00
2019-01-22T10:09:45.430Z,6608.00
2019-01-22T10:10:45.423Z,6620.00
2019-01-22T10:11:45.422Z,6636.00
2019-01-22T10:12:45.442Z,6640.00
2019-01-22T10:13:48.225Z,6608.00
2019-01-22T10:14:45.471Z,6564.00
2019-01-22T10:15:45.477Z,6520.00
2019-01-22T10:16:45.494Z,6528.00
2019-01-22T10:17:45.494Z,6436.00
2019-01-22T10:18:45.509Z,6404.00
2019-01-22T10:19:45.530Z,6444.00
2019-01-22T10:20:45.529Z,6444.00
2019-01-22T10:21:45.706Z,6328.00
2019-01-22T10:22:45.588Z,6244.00
2019-01-22T10:23:46.883Z,6072.00
2019-01-22T10:24:45.589Z,6144.00
2019-01-22T10:25:45.594Z,6200.00
2019-01-22T10:26:45.599Z,6232.00
2019-01-22T10:27:45.621Z,6320.00
2019-01-22T10:28:45.646Z,6504.00
2019-01-22T10:29:45.660Z,7052.00
2019-01-22T10:30:45.644Z,6952.00
2019-01-22T10:31:45.676Z,6632.00
2019-01-22T10:32:45.695Z,6508.00
2019-01-22T10:33:45.762Z,6300.00
2019-01-22T10:34:45.700Z,6372.00
2019-01-22T10:35:45.707Z,7156.00
2019-01-22T10:36:45.744Z,7144.00
2019-01-22T10:37:45.731Z,7668.00
2019-01-22T10:38:45.741Z,7700.00
2019-01-22T10:39:45.801Z,8252.00
2019-01-22T10:40:45.768Z,7092.00
2019-01-22T10:41:45.773Z,6828.00
2019-01-22T10:42:45.804Z,7064.00
2019-01-22T10:43:45.849Z,7620.00
2019-01-22T10:44:45.885Z,7780.00
2019-01-22T10:45:45.842Z,7584.00
2019-01-22T10:46:45.870Z,8428.00
2019-01-22T10:47:45.853Z,9168.00
2019-01-22T10:48:45.867Z,9992.00
2019-01-22T10:49:45.889Z,8800.00
2019-01-22T10:50:45.887Z,8944.00
2019-01-22T10:51:45.994Z,9444.00
2019-01-22T10:52:45.905Z,9732.00
2019-01-22T10:53:46.004Z,9292.00
2019-01-22T10:54:45.924Z,9932.00
2019-01-22T10:55:45.939Z,9804.00
2019-01-22T10:56:45.960Z,9568.00
2019-01-22T10:57:45.961Z,9728.00
2019-01-22T10:58:45.971Z,9404.00
2019-01-22T10:59:45.995Z,9920.00
2019-01-22T11:00:46.039Z,9804.00
2019-01-22T11:01:46.020Z,9300.00
2019-01-22T11:02:46.060Z,9804.00
2019-01-22T11:03:46.043Z,9052.00
2019-01-22T11:04:46.048Z,9364.00
2019-01-22T11:05:46.133Z,9112.00
2019-01-22T11:06:46.085Z,8716.00
2019-01-22T11:07:46.121Z,9404.00
2019-01-22T11:08:46.104Z,9724.00
2019-01-22T11:09:46.101Z,9380.00
2019-01-22T11:10:46.110Z,9672.00
2019-01-22T11:11:46.131Z,10140.00
2019-01-22T11:12:46.176Z,9960.00
2019-01-22T11:13:46.145Z,9028.00
2019-01-22T11:14:46.162Z,8444.00
2019-01-22T11:15:46.180Z,8304.00
2019-01-22T11:16:46.192Z,9736.00
2019-01-22T11:17:46.203Z,8724.00
2019-01-22T11:18:46.224Z,9212.00
2019-01-22T11:19:46.263Z,9448.00
2019-01-22T11:20:46.269Z,8700.00
2019-01-22T11:21:46.252Z,8144.00
2019-01-22T11:22:46.270Z,8084.00
2019-01-22T11:23:46.302Z,8128.00
2019-01-22T11:24:46.291Z,7972.00
2019-01-22T11:25:46.319Z,8192.00
2019-01-22T11:26:46.303Z,7752.00
2019-01-22T11:27:46.328Z,7492.00
2019-01-22T11:28:46.333Z,7172.00
2019-01-22T11:29:46.348Z,7312.00
2019-01-22T11:30:46.369Z,7072.00
2019-01-22T11:31:46.376Z,7356.00
2019-01-22T11:32:46.385Z,7336.00
2019-01-22T11:33:46.410Z,7628.00
2019-01-22T11:34:46.431Z,7804.00
2019-01-22T11:35:46.437Z,8180.00
2019-01-22T11:36:46.507Z,8404.00
2019-01-22T11:37:46.459Z,7880.00
2019-01-22T11:38:46.448Z,8120.00
2019-01-22T11:39:46.468Z,8504.00
2019-01-22T11:40:46.542Z,8668.00
2019-01-22T11:41:46.490Z,8276.00
2019-01-22T11:42:46.509Z,8324.00
2019-01-22T11:43:46.524Z,7768.00
2019-01-22T11:44:46.555Z,7868.00
2019-01-22T11:45:46.537Z,7452.00
2019-01-22T11:46:47.564Z,6900.00
2019-01-22T11:47:46.572Z,6556.00
2019-01-22T11:48:46.582Z,6412.00
2019-01-22T11:49:46.607Z,6196.00
2019-01-22T11:50:46.696Z,6104.00
2019-01-22T11:51:46.634Z,6652.00
2019-01-22T11:52:46.639Z,7240.00
2019-01-22T11:53:46.639Z,7204.00
2019-01-22T11:54:46.657Z,7512.00
2019-01-22T11:55:50.457Z,7536.00
2019-01-22T11:56:46.669Z,7528.00
2019-01-22T11:57:46.679Z,7508.00
2019-01-22T11:58:46.693Z,7736.00
2019-01-22T11:59:46.721Z,7168.00
2019-01-22T12:00:46.723Z,7716.00
2019-01-22T12:01:46.728Z,7264.00
2019-01-22T12:02:46.743Z,7368.00
2019-01-22T12:03:46.824Z,7256.00
2019-01-22T12:04:46.766Z,6960.00
2019-01-22T12:05:46.774Z,7148.00
2019-01-22T12:06:46.787Z,7116.00
2019-01-22T12:07:46.801Z,7056.00
2019-01-22T12:08:46.814Z,6936.00
2019-01-22T12:09:46.845Z,6560.00
2019-01-22T12:10:46.902Z,6772.00
2019-01-22T12:11:46.892Z,6644.00
2019-01-22T12:12:46.862Z,6544.00
2019-01-22T12:13:53.845Z,7248.00
2019-01-22T12:14:46.927Z,7864.00
2019-01-22T12:15:46.927Z,7760.00
2019-01-22T12:16:46.920Z,7636.00
2019-01-22T12:17:46.922Z,7576.00
2019-01-22T12:18:46.986Z,7508.00
2019-01-22T12:19:46.952Z,7308.00
2019-01-22T12:20:46.977Z,7732.00
2019-01-22T12:21:46.994Z,7904.00
2019-01-22T12:22:47.018Z,7532.00
2019-01-22T12:23:47.026Z,7048.00
2019-01-22T12:24:47.023Z,7392.00
2019-01-22T12:25:47.023Z,7504.00
2019-01-22T12:26:47.031Z,7424.00
2019-01-22T12:27:47.074Z,7532.00
2019-01-22T12:28:47.057Z,8144.00
2019-01-22T12:29:47.092Z,7520.00
2019-01-22T12:30:47.121Z,7524.00
2019-01-22T12:31:47.098Z,7196.00
2019-01-22T12:32:47.116Z,7312.00
2019-01-22T12:33:47.121Z,7464.00
2019-01-22T12:34:47.163Z,7636.00
2019-01-22T12:35:47.146Z,7288.00
2019-01-22T12:36:47.174Z,6860.00
2019-01-22T12:37:47.171Z,7092.00
2019-01-22T12:38:47.189Z,6928.00
2019-01-22T12:39:47.194Z,6676.00
2019-01-22T12:40:47.205Z,6564.00
2019-01-22T12:41:47.218Z,6324.00
2019-01-22T12:42:47.240Z,6456.00
2019-01-22T12:43:47.269Z,6504.00
2019-01-22T12:44:47.308Z,6680.00